createdAt,value
2022-10-01T00:00:05.546Z,81.00
2022-10-01T00:02:43.114Z,81.00
2022-10-01T00:05:15.480Z,81.00
2022-10-01T00:07:47.988Z,81.00
2022-10-01T00:10:20.393Z,81.00
2022-10-01T00:12:52.703Z,80.90
2022-10-01T00:15:27.802Z,80.90
2022-10-01T00:18:00.071Z,80.80
2022-10-01T00:20:32.467Z,80.80
2022-10-01T00:23:04.723Z,80.80
2022-10-01T00:25:37.357Z,80.80
2022-10-01T00:28:09.895Z,80.80
2022-10-01T00:30:48.429Z,80.70
2022-10-01T00:33:20.797Z,80.70
2022-10-01T00:35:57.154Z,80.70
2022-10-01T00:38:29.607Z,80.80
2022-10-01T00:41:02.070Z,80.70
2022-10-01T00:43:35.727Z,80.70
2022-10-01T00:46:12.784Z,80.70
2022-10-01T00:48:50.950Z,80.60
2022-10-01T00:51:23.498Z,80.50
2022-10-01T00:53:59.879Z,80.60
2022-10-01T00:56:32.644Z,80.50
2022-10-01T00:59:05.019Z,80.50
2022-10-01T01:01:39.086Z,80.40
2022-10-01T01:04:17.591Z,80.40
2022-10-01T01:06:57.957Z,80.30
2022-10-01T01:09:31.521Z,80.20
2022-10-01T01:12:12.871Z,80.10
2022-10-01T01:14:58.856Z,80.10
2022-10-01T01:17:35.392Z,80.10
2022-10-01T01:20:07.922Z,80.00
2022-10-01T01:22:45.307Z,80.10
2022-10-01T01:25:22.509Z,79.90
2022-10-01T01:28:13.383Z,80.00
2022-10-01T01:30:50.356Z,79.80
2022-10-01T01:33:23.170Z,79.80
2022-10-01T01:35:58.857Z,79.60
2022-10-01T01:38:34.679Z,79.60
2022-10-01T01:41:08.904Z,79.50
2022-10-01T01:43:44.364Z,79.50
2022-10-01T01:46:17.944Z,79.50
2022-10-01T01:48:52.647Z,79.40
2022-10-01T01:51:31.706Z,79.40
2022-10-01T01:54:04.339Z,79.30
2022-10-01T01:56:37.049Z,79.20
2022-10-01T01:59:09.502Z,79.10
2022-10-01T02:01:42.841Z,79.80
2022-10-01T02:04:31.815Z,79.00
2022-10-01T02:07:10.281Z,78.90
2022-10-01T02:09:48.467Z,79.70
2022-10-01T02:12:39.798Z,78.90
2022-10-01T02:15:21.619Z,78.80
2022-10-01T02:17:59.779Z,78.70
2022-10-01T02:20:36.652Z,78.70
2022-10-01T02:23:12.005Z,78.60
2022-10-01T02:25:51.789Z,78.60
2022-10-01T02:28:25.098Z,78.60
2022-10-01T02:30:57.887Z,78.60
2022-10-01T02:33:31.695Z,78.50
2022-10-01T02:36:05.852Z,78.50
2022-10-01T02:38:44.926Z,78.40
2022-10-01T02:41:25.755Z,79.20
2022-10-01T02:44:13.568Z,78.40
2022-10-01T02:47:22.155Z,78.30
2022-10-01T02:50:06.930Z,78.30
2022-10-01T02:53:01.837Z,78.30
2022-10-01T02:55:55.671Z,78.30
2022-10-01T02:58:41.082Z,78.20
2022-10-01T03:02:06.869Z,78.20
2022-10-01T03:04:45.082Z,78.20
2022-10-01T03:07:31.053Z,78.10
2022-10-01T03:10:18.155Z,78.20
2022-10-01T03:12:55.210Z,78.10
2022-10-01T03:15:41.432Z,78.00
2022-10-01T03:18:28.536Z,78.00
2022-10-01T03:21:01.967Z,78.00
2022-10-01T03:23:34.328Z,77.90
2022-10-01T03:26:06.736Z,77.90
2022-10-01T03:28:39.429Z,77.90
2022-10-01T03:31:11.859Z,77.90
2022-10-01T03:33:44.194Z,77.90
2022-10-01T03:36:16.553Z,77.90
2022-10-01T03:38:48.797Z,77.80
2022-10-01T03:41:21.120Z,77.80
2022-10-01T03:43:56.062Z,77.70
2022-10-01T03:46:32.037Z,77.70
2022-10-01T03:49:04.412Z,77.70
2022-10-01T03:51:37.866Z,77.70
2022-10-01T03:54:11.310Z,77.60
2022-10-01T03:56:43.854Z,77.60
2022-10-01T03:59:16.224Z,77.60
2022-10-01T04:01:48.642Z,77.50
2022-10-01T04:04:21.104Z,77.50
2022-10-01T04:06:53.450Z,77.50
2022-10-01T04:09:26.333Z,77.40
2022-10-01T04:11:59.006Z,77.40
2022-10-01T04:14:31.285Z,77.30
2022-10-01T04:17:03.697Z,77.20
2022-10-01T04:19:35.971Z,77.20
2022-10-01T04:22:08.307Z,77.30
2022-10-01T04:24:40.559Z,77.30
2022-10-01T04:27:12.975Z,77.30
2022-10-01T04:29:45.368Z,77.20
2022-10-01T04:32:21.839Z,77.10
2022-10-01T04:34:54.204Z,77.10
2022-10-01T04:37:27.738Z,78.00
2022-10-01T04:40:00.048Z,77.10
2022-10-01T04:42:33.182Z,77.10
2022-10-01T04:45:05.826Z,77.00
2022-10-01T04:47:38.276Z,77.00
2022-10-01T04:50:10.691Z,76.90
2022-10-01T04:52:43.372Z,76.90
2022-10-01T04:55:16.192Z,76.90
2022-10-01T04:57:48.587Z,76.80
2022-10-01T05:00:22.208Z,76.70
2022-10-01T05:02:54.614Z,76.60
2022-10-01T05:05:29.259Z,76.60
2022-10-01T05:08:01.747Z,76.60
2022-10-01T05:10:34.194Z,76.60
2022-10-01T05:13:06.537Z,76.50
2022-10-01T05:15:39.059Z,76.50
2022-10-01T05:18:11.368Z,76.40
2022-10-01T05:20:44.021Z,76.40
2022-10-01T05:23:16.340Z,76.40
2022-10-01T05:25:48.710Z,76.30
2022-10-01T05:28:22.596Z,76.40
2022-10-01T05:30:56.686Z,76.30
2022-10-01T05:33:30.031Z,76.20
2022-10-01T05:36:02.823Z,76.20
2022-10-01T05:38:37.995Z,76.10
2022-10-01T05:41:10.837Z,76.10
2022-10-01T05:43:44.136Z,76.10
2022-10-01T05:46:16.581Z,76.00
2022-10-01T05:48:50.454Z,76.10
2022-10-01T05:51:22.875Z,75.90
2022-10-01T05:53:55.571Z,76.00
2022-10-01T05:56:28.427Z,75.90
2022-10-01T05:59:00.943Z,75.90
2022-10-01T06:01:33.354Z,75.80
2022-10-01T06:04:05.902Z,75.70
2022-10-01T06:06:42.738Z,75.70
2022-10-01T06:09:15.873Z,75.60
2022-10-01T06:11:49.161Z,75.50
2022-10-01T06:14:21.552Z,75.50
2022-10-01T06:16:54.822Z,75.50
2022-10-01T06:19:27.131Z,75.50
2022-10-01T06:21:59.446Z,75.40
2022-10-01T06:24:32.082Z,75.30
2022-10-01T06:27:04.330Z,75.30
2022-10-01T06:29:36.608Z,75.20
2022-10-01T06:32:13.579Z,75.10
2022-10-01T06:34:47.331Z,75.00
2022-10-01T06:37:19.668Z,74.70
2022-10-01T06:39:52.017Z,74.60
2022-10-01T06:42:24.469Z,74.50
2022-10-01T06:44:56.924Z,74.20
2022-10-01T06:47:29.399Z,74.10
2022-10-01T06:50:01.911Z,74.00
2022-10-01T06:52:49.281Z,73.90
2022-10-01T06:55:25.862Z,73.90
2022-10-01T06:57:59.261Z,74.70
2022-10-01T07:00:32.626Z,73.70
2022-10-01T07:03:06.740Z,73.50
2022-10-01T07:05:39.599Z,73.60
2022-10-01T07:08:11.920Z,73.50
2022-10-01T07:10:44.616Z,73.50
2022-10-01T07:13:18.695Z,73.40
2022-10-01T07:15:51.007Z,73.40
2022-10-01T07:18:23.905Z,73.40
2022-10-01T07:20:59.447Z,73.40
2022-10-01T07:23:31.743Z,73.40
2022-10-01T07:26:04.987Z,73.40
2022-10-01T07:28:37.347Z,73.40
2022-10-01T07:31:12.896Z,73.30
2022-10-01T07:33:45.295Z,73.30
2022-10-01T07:36:17.611Z,73.40
2022-10-01T07:38:51.122Z,73.20
2022-10-01T07:41:23.375Z,73.20
2022-10-01T07:43:55.688Z,73.20
2022-10-01T07:46:31.417Z,73.10
2022-10-01T07:49:06.570Z,73.10
2022-10-01T07:51:38.975Z,73.10
2022-10-01T07:54:11.299Z,73.10
2022-10-01T07:56:52.927Z,73.00
2022-10-01T07:59:28.382Z,72.90
2022-10-01T08:02:01.214Z,72.90
2022-10-01T08:04:51.959Z,73.00
2022-10-01T08:07:24.397Z,72.90
2022-10-01T08:09:57.216Z,72.80
2022-10-01T08:12:30.633Z,72.70
2022-10-01T08:15:03.008Z,72.60
2022-10-01T08:17:35.300Z,72.50
2022-10-01T08:20:08.688Z,72.20
2022-10-01T08:22:42.328Z,72.00
2022-10-01T08:25:15.032Z,71.80
2022-10-01T08:27:48.470Z,71.70
2022-10-01T08:30:20.830Z,71.50
2022-10-01T08:32:56.880Z,71.50
2022-10-01T08:35:29.483Z,71.40
2022-10-01T08:38:02.670Z,71.40
2022-10-01T08:40:37.067Z,71.30
2022-10-01T08:43:14.869Z,71.30
2022-10-01T08:45:51.854Z,71.40
2022-10-01T08:48:24.119Z,71.40
2022-10-01T08:51:00.308Z,71.50
2022-10-01T08:54:02.055Z,71.30
2022-10-01T08:56:39.872Z,71.30
2022-10-01T08:59:18.046Z,71.10
2022-10-01T09:01:50.353Z,71.10
2022-10-01T09:04:23.141Z,70.90
2022-10-01T09:07:04.530Z,70.80
2022-10-01T09:09:45.274Z,70.80
2022-10-01T09:12:17.676Z,70.60
2022-10-01T09:14:49.961Z,70.40
2022-10-01T09:17:29.459Z,70.60
2022-10-01T09:20:05.091Z,70.50
2022-10-01T09:22:39.669Z,70.50
2022-10-01T09:25:30.942Z,70.40
2022-10-01T09:28:12.489Z,70.30
2022-10-01T09:31:07.900Z,70.50
2022-10-01T09:33:58.360Z,70.40
2022-10-01T09:36:35.227Z,70.30
2022-10-01T09:39:26.234Z,70.50
2022-10-01T09:41:59.917Z,70.50
2022-10-01T09:44:33.166Z,70.50
2022-10-01T09:47:16.453Z,70.40
2022-10-01T09:49:50.996Z,70.20
2022-10-01T09:56:16.015Z,70.20
2022-10-01T09:58:51.742Z,69.90
2022-10-01T10:01:12.942Z,70.20
2022-10-01T10:01:30.635Z,69.80
2022-10-01T10:04:05.686Z,69.70
2022-10-01T10:06:38.861Z,69.40
2022-10-01T10:09:16.746Z,69.20
2022-10-01T10:11:49.428Z,69.10
2022-10-01T10:14:25.899Z,69.00
2022-10-01T10:16:59.347Z,69.10
2022-10-01T10:19:32.567Z,68.80
2022-10-01T10:22:13.694Z,68.50
2022-10-01T10:24:47.330Z,68.50
2022-10-01T10:27:27.161Z,68.50
2022-10-01T10:30:03.143Z,68.50
2022-10-01T10:32:35.439Z,68.50
2022-10-01T10:35:13.734Z,68.40
2022-10-01T10:37:50.695Z,68.10
2022-10-01T10:40:29.678Z,68.20
2022-10-01T10:43:02.337Z,68.60
2022-10-01T10:45:36.909Z,68.80
2022-10-01T10:48:14.174Z,68.90
2022-10-01T10:50:47.034Z,68.80
2022-10-01T10:53:22.624Z,68.90
2022-10-01T10:56:02.046Z,69.00
2022-10-01T10:58:38.234Z,69.20
2022-10-01T11:01:13.866Z,69.30
2022-10-01T11:04:07.403Z,69.40
2022-10-01T11:06:40.157Z,69.60
2022-10-01T11:09:18.110Z,69.60
2022-10-01T11:11:57.757Z,69.70
2022-10-01T11:14:35.540Z,69.70
2022-10-01T11:17:24.991Z,69.70
2022-10-01T11:20:20.837Z,69.70
2022-10-01T11:23:12.328Z,69.90
2022-10-01T11:26:06.940Z,70.00
2022-10-01T11:28:46.256Z,70.00
2022-10-01T11:31:27.051Z,70.00
2022-10-01T11:34:14.444Z,70.00
2022-10-01T11:36:54.640Z,69.90
2022-10-01T11:39:29.079Z,70.00
2022-10-01T11:42:05.802Z,69.90
2022-10-01T11:44:43.347Z,70.00
2022-10-01T11:47:44.704Z,69.90
2022-10-01T11:50:17.184Z,69.80
2022-10-01T11:52:59.294Z,69.80
2022-10-01T11:55:53.036Z,69.80
2022-10-01T11:58:43.892Z,69.80
2022-10-01T12:01:22.944Z,69.70
2022-10-01T12:03:55.213Z,69.70
2022-10-01T12:06:33.898Z,69.50
2022-10-01T12:09:06.682Z,69.60
2022-10-01T12:11:57.751Z,69.60
2022-10-01T12:14:38.266Z,69.70
2022-10-01T12:17:24.028Z,69.70
2022-10-01T12:19:57.550Z,69.70
2022-10-01T12:22:31.530Z,69.70
2022-10-01T12:25:04.140Z,69.60
2022-10-01T12:27:53.523Z,69.60
2022-10-01T12:30:32.103Z,69.60
2022-10-01T12:33:05.040Z,69.60
2022-10-01T12:35:37.331Z,69.60
2022-10-01T12:38:15.527Z,69.50
2022-10-01T12:40:59.750Z,69.40
2022-10-01T12:43:38.233Z,69.40
2022-10-01T12:46:16.486Z,69.40
2022-10-01T12:48:48.853Z,69.20
2022-10-01T12:51:39.840Z,69.10
2022-10-01T12:54:27.423Z,69.30
2022-10-01T12:57:17.924Z,69.30
2022-10-01T13:00:08.844Z,69.30
2022-10-01T13:03:05.321Z,69.30
2022-10-01T13:05:56.248Z,69.20
2022-10-01T13:08:34.550Z,69.20
2022-10-01T13:11:09.667Z,69.20
2022-10-01T13:13:45.012Z,69.10
2022-10-01T13:16:23.438Z,69.10
2022-10-01T13:18:55.824Z,68.90
2022-10-01T13:21:33.298Z,68.80
2022-10-01T13:24:09.972Z,68.80
2022-10-01T13:26:51.120Z,68.50
2022-10-01T13:29:36.493Z,68.40
2022-10-01T13:32:26.203Z,68.30
2022-10-01T13:34:59.649Z,68.30
2022-10-01T13:37:39.110Z,68.30
2022-10-01T13:40:31.356Z,68.40
2022-10-01T13:43:09.275Z,68.40
2022-10-01T13:45:43.314Z,68.10
2022-10-01T13:48:18.083Z,68.00
2022-10-01T13:50:55.828Z,68.10
2022-10-01T13:53:29.975Z,67.80
2022-10-01T13:56:02.882Z,67.60
2022-10-01T13:58:42.311Z,67.40
2022-10-01T14:01:23.594Z,67.30
2022-10-01T14:04:00.393Z,67.30
2022-10-01T14:06:35.831Z,67.30
2022-10-01T14:09:11.611Z,67.20
2022-10-01T14:12:04.196Z,67.20
2022-10-01T14:14:59.530Z,67.30
2022-10-01T14:17:32.853Z,67.30
2022-10-01T14:20:05.666Z,67.10
2022-10-01T14:22:46.763Z,67.10
2022-10-01T14:25:21.307Z,67.30
2022-10-01T14:28:11.613Z,67.40
2022-10-01T14:30:59.068Z,67.40
2022-10-01T14:33:40.770Z,67.40
2022-10-01T14:36:20.887Z,67.40
2022-10-01T14:39:02.717Z,67.50
2022-10-01T14:41:35.420Z,67.40
2022-10-01T14:44:26.245Z,67.50
2022-10-01T14:46:59.464Z,67.60
2022-10-01T14:49:33.117Z,67.60
2022-10-01T14:52:17.105Z,67.70
2022-10-01T14:54:52.609Z,67.80
2022-10-01T14:57:35.553Z,67.80
2022-10-01T15:00:11.518Z,68.10
2022-10-01T15:02:48.317Z,68.00
2022-10-01T15:05:23.289Z,68.10
2022-10-01T15:07:58.269Z,68.10
2022-10-01T15:10:30.619Z,68.20
2022-10-01T15:13:03.384Z,68.30
2022-10-01T15:15:41.049Z,68.30
2022-10-01T15:18:15.934Z,69.20
2022-10-01T15:21:04.935Z,68.40
2022-10-01T15:23:39.689Z,68.40
2022-10-01T15:26:13.979Z,68.40
2022-10-01T15:28:46.344Z,68.50
2022-10-01T15:31:21.903Z,68.60
2022-10-01T15:33:54.693Z,69.40
2022-10-01T15:36:27.378Z,68.70
2022-10-01T15:39:00.885Z,68.70
2022-10-01T15:41:34.052Z,68.60
2022-10-01T15:44:06.418Z,68.40
2022-10-01T15:48:30.319Z,67.10
2022-10-01T15:51:26.249Z,67.10
2022-10-01T15:54:09.019Z,65.40
2022-10-01T15:56:42.365Z,64.60
2022-10-01T15:59:20.854Z,64.20
2022-10-01T16:01:53.712Z,63.70
2022-10-01T16:04:26.313Z,63.10
2022-10-01T16:06:58.951Z,62.60
2022-10-01T16:09:32.122Z,62.40
2022-10-01T16:12:20.437Z,63.00
2022-10-01T16:15:01.288Z,62.20
2022-10-01T16:17:37.368Z,62.60
2022-10-01T16:20:15.915Z,61.60
2022-10-01T16:22:49.127Z,61.10
2022-10-01T16:25:26.013Z,61.10
2022-10-01T16:28:18.927Z,60.80
2022-10-01T16:30:51.668Z,60.50
2022-10-01T16:33:24.487Z,60.60
2022-10-01T16:36:10.022Z,60.50
2022-10-01T16:38:43.162Z,60.00
2022-10-01T16:41:23.027Z,60.10
2022-10-01T16:43:57.394Z,59.90
2022-10-01T16:46:30.784Z,59.90
2022-10-01T16:49:11.521Z,59.80
2022-10-01T16:51:44.295Z,59.80
2022-10-01T16:54:20.123Z,59.70
2022-10-01T16:56:55.437Z,60.30
2022-10-01T16:59:28.051Z,60.00
2022-10-01T17:02:02.406Z,59.80
2022-10-01T17:04:35.044Z,59.80
2022-10-01T17:07:07.857Z,59.70
2022-10-01T17:09:41.287Z,59.60
2022-10-01T17:12:13.886Z,59.50
2022-10-01T17:14:46.465Z,59.40
2022-10-01T17:17:18.976Z,59.40
2022-10-01T17:19:51.990Z,59.30
2022-10-01T17:22:30.356Z,59.20
2022-10-01T17:25:08.628Z,59.00
2022-10-01T17:27:41.384Z,59.00
2022-10-01T17:30:14.542Z,58.90
2022-10-01T17:32:47.055Z,58.80
2022-10-01T17:35:19.657Z,58.80
2022-10-01T17:37:52.330Z,58.60
2022-10-01T17:40:24.771Z,58.60
2022-10-01T17:42:57.340Z,59.10
2022-10-01T17:45:30.139Z,58.40
2022-10-01T17:48:02.710Z,58.30
2022-10-01T17:50:35.910Z,58.80
2022-10-01T17:53:08.763Z,58.40
2022-10-01T17:55:42.880Z,58.30
2022-10-01T17:58:15.522Z,58.20
2022-10-01T18:00:54.273Z,57.90
2022-10-01T18:03:26.996Z,57.80
2022-10-01T18:06:05.407Z,57.80
2022-10-01T18:08:54.259Z,57.70
2022-10-01T18:11:29.630Z,57.60
2022-10-01T18:14:02.422Z,57.40
2022-10-01T18:16:39.866Z,57.30
2022-10-01T18:22:13.607Z,58.10
2022-10-01T18:24:46.689Z,57.00
2022-10-01T18:27:19.283Z,56.80
2022-10-01T18:29:51.902Z,56.60
2022-10-01T18:32:27.474Z,56.70
2022-10-01T18:35:02.187Z,56.70
2022-10-01T18:37:47.375Z,56.80
2022-10-01T18:40:22.019Z,56.70
2022-10-01T18:43:06.035Z,56.80
2022-10-01T18:45:48.787Z,56.70
2022-10-01T18:48:38.302Z,56.30
2022-10-01T18:51:42.870Z,56.40
2022-10-01T18:54:34.799Z,56.30
2022-10-01T18:57:45.068Z,56.30
2022-10-01T19:00:23.474Z,56.30
2022-10-01T19:03:32.911Z,56.20
2022-10-01T19:06:33.947Z,56.10
2022-10-01T19:09:29.126Z,56.10
2022-10-01T19:12:28.981Z,55.70
2022-10-01T19:15:25.198Z,55.70
2022-10-01T19:18:23.188Z,55.50
2022-10-01T19:21:16.660Z,55.90
2022-10-01T19:24:27.992Z,55.80
2022-10-01T19:27:25.063Z,56.10
2022-10-01T19:30:15.888Z,56.30
2022-10-01T19:33:04.105Z,56.30
2022-10-01T19:35:42.946Z,56.40
2022-10-01T19:38:37.209Z,56.30
2022-10-01T19:41:20.881Z,56.20
2022-10-01T19:43:59.749Z,56.00
2022-10-01T19:46:45.617Z,55.90
2022-10-01T19:49:34.832Z,55.70
2022-10-01T19:52:18.508Z,55.60
2022-10-01T19:55:01.208Z,55.40
2022-10-01T19:57:42.495Z,55.40
2022-10-01T20:00:24.803Z,55.40
2022-10-01T20:03:11.504Z,55.30
2022-10-01T20:05:58.614Z,55.10
2022-10-01T20:08:56.082Z,55.10
2022-10-01T20:11:36.560Z,55.00
2022-10-01T20:15:02.492Z,54.90
2022-10-01T20:17:37.924Z,54.80
2022-10-01T20:20:20.187Z,54.70
2022-10-01T20:23:29.878Z,54.70
2022-10-01T20:26:09.431Z,54.70
2022-10-01T20:28:54.797Z,54.60
2022-10-01T20:31:32.323Z,54.50
2022-10-01T20:34:22.365Z,54.40
2022-10-01T20:37:08.518Z,54.30
2022-10-01T20:39:48.697Z,54.10
2022-10-01T20:42:37.332Z,54.10
2022-10-01T20:45:18.805Z,54.00
2022-10-01T20:48:02.221Z,54.00
2022-10-01T20:50:59.934Z,54.00
2022-10-01T20:53:40.587Z,54.00
2022-10-01T20:56:19.167Z,54.10
2022-10-01T20:59:10.299Z,54.10
2022-10-01T21:02:01.347Z,54.20
2022-10-01T21:04:39.215Z,54.30
2022-10-01T21:07:35.598Z,54.50
2022-10-01T21:10:22.352Z,54.70
2022-10-01T21:13:27.511Z,54.70
2022-10-01T21:16:38.403Z,54.80
2022-10-01T21:19:25.235Z,55.00
2022-10-01T21:22:23.798Z,55.00
2022-10-01T21:25:03.728Z,55.00
2022-10-01T21:28:06.960Z,55.10
2022-10-01T21:30:53.231Z,55.10
2022-10-01T21:33:33.219Z,55.10
2022-10-01T21:36:19.547Z,55.10
2022-10-01T21:39:17.468Z,55.20
2022-10-01T21:42:17.644Z,55.30
2022-10-01T21:45:14.579Z,55.30
2022-10-01T21:48:13.731Z,55.30
2022-10-01T21:51:00.461Z,55.20
2022-10-01T21:53:58.310Z,55.20
2022-10-01T21:56:40.337Z,55.30
2022-10-01T21:59:13.052Z,55.30
2022-10-01T22:02:04.021Z,55.40
2022-10-01T22:04:49.661Z,55.30
2022-10-01T22:07:47.215Z,55.30
2022-10-01T22:10:32.442Z,55.40
2022-10-01T22:13:14.298Z,55.30
2022-10-01T22:15:49.973Z,55.30
2022-10-01T22:18:45.596Z,55.30
2022-10-01T22:21:41.820Z,55.30
2022-10-01T22:24:18.415Z,55.40
2022-10-01T22:27:01.871Z,55.50
2022-10-01T22:29:40.490Z,55.60
2022-10-01T22:32:15.545Z,55.70
2022-10-01T22:34:57.769Z,55.90
2022-10-01T22:38:10.213Z,56.00
2022-10-01T22:40:48.810Z,56.10
2022-10-01T22:43:21.258Z,56.20
2022-10-01T22:46:14.402Z,56.30
2022-10-01T22:48:46.914Z,56.40
2022-10-01T22:51:22.955Z,56.40
2022-10-01T22:54:21.790Z,56.50
2022-10-01T22:57:05.141Z,56.70
2022-10-01T22:59:44.181Z,56.80
2022-10-01T23:02:26.074Z,56.90
2022-10-01T23:05:27.320Z,57.00
2022-10-01T23:08:17.225Z,57.00
2022-10-01T23:11:23.230Z,57.00
2022-10-01T23:14:14.599Z,57.10
2022-10-01T23:17:11.769Z,57.20
2022-10-01T23:20:18.990Z,57.20
2022-10-01T23:23:27.679Z,57.30
2022-10-01T23:26:18.118Z,57.40
2022-10-01T23:29:05.932Z,57.40
2022-10-01T23:31:49.116Z,57.40
2022-10-01T23:34:29.625Z,57.50
2022-10-01T23:37:21.853Z,57.50
2022-10-01T23:40:14.703Z,57.50
2022-10-01T23:43:10.042Z,57.60
2022-10-01T23:46:07.628Z,57.50
2022-10-01T23:48:43.212Z,58.50
2022-10-01T23:51:18.506Z,57.70
2022-10-01T23:54:05.196Z,57.70
2022-10-01T23:56:50.050Z,57.70
2022-10-01T23:59:34.203Z,57.60
